weather.gov     
National Weather Service

Terminal Aerodrome Forecast
NWS Homepage
This page is being discontinued on March 12, 2014.
The same data is available at this site. Please update your bookmarks.
Thank you, and we apologize for the inconvenience.
Please send an email to SR-SRH.Webmaster@noaa.gov with any concerns.


Current Version
Previous Version:    01  02  03  04  05  06  07  08  09  10  11  12  13  14  15  16  17  18  19  20  21  22  23  24  25  26  27  
[Printable]
551
FTAK31 PAJN 190500
TAFASI
TAF
PASI 190539Z 1906/2006 10007KT P6SM FEW040 BKN250
     FM190900 09008KT P6SM VCSH BKN035 OVC050 WS020/12035KT
     FM191700 09018G28KT P6SM VCSH BKN040 OVC060
     FM200300 09015G25KT P6SM -RA BKN030 OVC050=


U.S. Dept. of Commerce
NOAA National Weather Service
1325 East West Highway
Silver Spring, MD 20910
E-mail: w-nws.webmaster@noaa.gov
Page last modified: May 16, 2007
NATIONAL WEATHER SERVICE: for Safety, for Work, for Fun - FOR LIFE